Park Rapids, Park Rapids Municipal Konshok Field (KPKD)

NamePark Rapids Municipal Konshok Field
CityPark Rapids
CountryUnited States
ICAOKPKD
IATA
Altitude440 m
CoordinatesGoogle Map
Live Air TrafficLiveATC.net
METARKPKD 240453Z AUTO 33014KT 6SM BR OVC010 M07/M09 A2968 RMK AO2 SLP075 T10671089
2019-02-24 04:53:00 Wind: Northwest (330°) 7.2 m/s - Visibility: 9656.04 m - Weather: Mist - Temperature: -7 °C - Dew point: -9 °C - Humidity: 85.8% - Pressure: 1005.08 hPa

Sorry, no flights used the airport in this database.